UAL2604 KLGA-KBOS
Flight info
| Callsign | UAL2604 |
|---|---|
| Flight time | N/A |
| Altitude | 21000 |
| Route | MERIT ROBUC3 |
| Aircraft | B739/M-SDE2E3FGHIRWXY/LB1 |
Departure
| Time | N/A |
|---|---|
| Airport | LaGuardia Airport (KLGA) |
Arrival
| Time | 2026-05-05 14:10 |
|---|---|
| Airport | Boston Logan International Airport (KBOS) |
| Time | Latitude | Longitude | Altitude | Speed | Heading |
|---|---|---|---|---|---|
| 2026-05-05 14:08 | 42.42902 | -70.97402 | 1188 ft | 138 kts | 201° |
| 2026-05-05 14:08 | 42.42003 | -70.97842 | 1007 ft | 137 kts | 200° |
| 2026-05-05 14:09 | 42.41109 | -70.98276 | 837 ft | 137 kts | 201° |
| 2026-05-05 14:09 | 42.40206 | -70.98711 | 656 ft | 138 kts | 200° |
| 2026-05-05 14:09 | 42.39308 | -70.99156 | 467 ft | 137 kts | 200° |
| 2026-05-05 14:09 | 42.38407 | -70.99584 | 284 ft | 137 kts | 200° |
| 2026-05-05 14:10 | 42.37499 | -71.00022 | 104 ft | 139 kts | 200° |
| 2026-05-05 14:10 | 42.36619 | -71.00455 | 27 ft | 117 kts | 199° |
| 2026-05-05 14:10 | 42.36186 | -71.00683 | 25 ft | 40 kts | 226° |
| 2026-05-05 14:10 | 42.36187 | -71.00929 | 28 ft | 22 kts | 294° |
| 2026-05-05 14:11 | 42.36241 | -71.01089 | 26 ft | 14 kts | 292° |
| 2026-05-05 14:11 | 42.36279 | -71.01186 | 29 ft | 17 kts | 301° |
| 2026-05-05 14:11 | 42.36326 | -71.01290 | 25 ft | 9 kts | 302° |
| 2026-05-05 14:11 | 42.36358 | -71.01363 | 26 ft | 9 kts | 301° |
| 2026-05-05 14:12 | 42.36411 | -71.01390 | 25 ft | 10 kts | 20° |
| 2026-05-05 14:12 | 42.36472 | -71.01362 | 28 ft | 10 kts | 22° |
| 2026-05-05 14:12 | 42.36563 | -71.01302 | 27 ft | 16 kts | 22° |
| 2026-05-05 14:12 | 42.36668 | -71.01263 | 27 ft | 15 kts | 17° |
| 2026-05-05 14:13 | 42.36760 | -71.01253 | 27 ft | 4 kts | 349° |
| 2026-05-05 14:13 | 42.36785 | -71.01269 | 28 ft | 4 kts | 327° |
| 2026-05-05 14:13 | 42.36807 | -71.01291 | 26 ft | 4 kts | 322° |
| 2026-05-05 14:13 | 42.36826 | -71.01317 | 29 ft | 4 kts | 305° |
| 2026-05-05 14:14 | 42.36855 | -71.01399 | 28 ft | 11 kts | 263° |
| 2026-05-05 14:14 | 42.36840 | -71.01455 | 30 ft | 3 kts | 249° |
| 2026-05-05 14:14 | 42.36837 | -71.01465 | 25 ft | 0 kts | 248° |